F/V Le Dolmen — FHMD — position and weather

sailwx.info

Track history (hours):
 
Tides and Currents Weather Stations Pressure Air Temp Water Temp Dewpoint Dewpoint Depression Visibility Wind Speed Wind Dir Waves Ship Positions

F/V Le Dolmen

Last reported at 2018-Jan-21 12:46 UTC. Time now 2018-Jan-23 06:26 UTC.
Position N 47°18' W 002°60'.

Length 18 m.

Type: Fishing. MMSI: 228374000.

Date/timePositionNaut miles runAvg speedWind from/ knotsBaromVisibWave heightAir tempDewpointWater temp
2018-Jan-21 12:46N 47°18' W 002°60'2 8.9
2018-Jan-21 12:30N 47°20' W 003°02'4 9.1
2018-Jan-21 12:01N 47°23' W 003°06'4 8.5
2018-Jan-21 11:31N 47°27' W 003°09'4 8.7
2018-Jan-21 11:00N 47°31' W 003°12'4 9.0
2018-Jan-21 10:30N 47°35' W 003°16'5 9.2
2018-Jan-21 10:00N 47°38' W 003°20'4 8.8
2018-Jan-21 09:30N 47°42' W 003°22'1 2.6
2018-Jan-21 09:00N 47°44' W 003°22'0 0.2
2018-Jan-21 08:30N 47°44' W 003°22'0 0.0
2018-Jan-21 08:00N 47°44' W 003°22'0 0.0
2018-Jan-21 07:30N 47°44' W 003°22'0 0.0
2018-Jan-21 07:00N 47°44' W 003°22'0 0.0
2018-Jan-21 06:30N 47°44' W 003°22'0 0.0
2018-Jan-21 06:00N 47°44' W 003°22'0 0.0
2018-Jan-21 05:30N 47°44' W 003°22'0 0.0
2018-Jan-21 05:00N 47°44' W 003°22'0 0.0
2018-Jan-21 04:30N 47°44' W 003°22'0 0.0
2018-Jan-21 04:00N 47°44' W 003°22'0 0.0
2018-Jan-21 03:30N 47°44' W 003°22'0 0.0
2018-Jan-21 03:00N 47°44' W 003°22'0 0.0
2018-Jan-21 02:30N 47°44' W 003°22'0 0.0
2018-Jan-21 02:00N 47°44' W 003°22'0 0.0
2018-Jan-21 01:29N 47°44' W 003°22'0 0.0
2018-Jan-21 01:00N 47°44' W 003°22'0 0.0
2018-Jan-21 00:30N 47°44' W 003°22'0 0.0
2018-Jan-21 00:00N 47°44' W 003°22'0 0.0
2018-Jan-20 23:30N 47°44' W 003°22'0 0.0
2018-Jan-20 23:00N 47°44' W 003°22'0 0.0
2018-Jan-20 22:30N 47°44' W 003°22'0 0.0
2018-Jan-20 22:00N 47°44' W 003°22'0 0.0
2018-Jan-20 21:30N 47°44' W 003°22'0 0.0
2018-Jan-20 21:00N 47°44' W 003°22'0 0.0
2018-Jan-20 20:30N 47°44' W 003°22'0 0.0
2018-Jan-20 20:00N 47°44' W 003°22'0 0.0
2018-Jan-20 19:30N 47°44' W 003°22'0 0.0
2018-Jan-20 19:00N 47°44' W 003°22'0 0.0
2018-Jan-20 18:30N 47°44' W 003°22'0 0.0
2018-Jan-20 18:00N 47°44' W 003°22'0 0.0
2018-Jan-20 17:30N 47°44' W 003°22'0 0.0
2018-Jan-20 17:00N 47°44' W 003°22'0 0.0
2018-Jan-20 16:30N 47°44' W 003°22'0 0.0
2018-Jan-20 16:00N 47°44' W 003°22'0 0.0
2018-Jan-20 15:30N 47°44' W 003°22'0 0.0
2018-Jan-20 15:00N 47°44' W 003°22'0 0.0
2018-Jan-20 14:30N 47°44' W 003°22'0 0.0
2018-Jan-20 14:00N 47°44' W 003°22'0 0.0
2018-Jan-20 13:30N 47°44' W 003°22'0 0.0
2018-Jan-20 13:00N 47°44' W 003°22'0 0.0
2018-Jan-20 12:30N 47°44' W 003°22'0 0.2
2018-Jan-20 12:00N 47°44' W 003°22'0 0.0
2018-Jan-20 11:30N 47°44' W 003°22'2 4.8
2018-Jan-20 11:00N 47°41' W 003°22'4 7.7
2018-Jan-20 10:30N 47°37' W 003°22'4 7.3
2018-Jan-20 10:01N 47°34' W 003°22'3 6.4
2018-Jan-20 09:30N 47°31' W 003°23'3 6.6
2018-Jan-20 09:00N 47°27' W 003°23'3 6.7
2018-Jan-20 08:30N 47°24' W 003°22'3 6.7
2018-Jan-20 08:00N 47°21' W 003°20'5 0.2
2018-Jan-19 03:04N 47°17' W 003°23'1 8.7
2018-Jan-19 02:58N 47°18' W 003°23'4 8.8
2018-Jan-19 02:30N 47°22' W 003°23'4 8.6
2018-Jan-19 02:00N 47°26' W 003°23'4 8.6
2018-Jan-19 01:29N 47°30' W 003°22'4 8.3
2018-Jan-19 01:00N 47°34' W 003°22'4 8.5
2018-Jan-19 00:30N 47°39' W 003°22'4 8.6
2018-Jan-19 00:00N 47°43' W 003°22'1 1.8
2018-Jan-18 23:30N 47°44' W 003°22'0 0.0
2018-Jan-18 23:00N 47°44' W 003°22'0 0.0
2018-Jan-18 22:30N 47°44' W 003°22'0 0.0
2018-Jan-18 22:00N 47°44' W 003°22'0 0.0
2018-Jan-18 21:31N 47°44' W 003°22'0 0.0
2018-Jan-18 21:00N 47°44' W 003°22'0 0.0
2018-Jan-18 20:30N 47°44' W 003°22'0 0.0
2018-Jan-18 20:00N 47°44' W 003°22'0 0.0
2018-Jan-18 19:30N 47°44' W 003°22'0 0.0
2018-Jan-18 19:00N 47°44' W 003°22'0 0.0
2018-Jan-18 18:30N 47°44' W 003°22'0 0.0
2018-Jan-18 18:00N 47°44' W 003°22'0 0.0
2018-Jan-18 17:30N 47°44' W 003°22'0 0.0
2018-Jan-18 16:59N 47°44' W 003°22'0 0.0
2018-Jan-18 16:30N 47°44' W 003°22'0 0.0
2018-Jan-18 16:00N 47°44' W 003°22'0 0.0
2018-Jan-18 15:30N 47°44' W 003°22'0 0.0
2018-Jan-18 15:00N 47°44' W 003°22'0 0.0
2018-Jan-18 14:30N 47°44' W 003°22'0 0.0
2018-Jan-18 14:00N 47°44' W 003°22'0 0.0
2018-Jan-18 13:30N 47°44' W 003°22'0 0.0
2018-Jan-18 13:00N 47°44' W 003°22'0 0.0
2018-Jan-18 12:30N 47°44' W 003°22'0 0.0
2018-Jan-18 12:00N 47°44' W 003°22'0 0.0
2018-Jan-18 11:30N 47°44' W 003°22'0 0.0
2018-Jan-18 11:00N 47°44' W 003°22'0 0.0
2018-Jan-18 10:30N 47°44' W 003°22'0 0.0
2018-Jan-18 10:00N 47°44' W 003°22'0 0.0
2018-Jan-18 09:30N 47°44' W 003°22'0 0.0
2018-Jan-18 09:00N 47°44' W 003°22'0 0.0
2018-Jan-18 08:30N 47°44' W 003°22'0 0.0
2018-Jan-18 08:00N 47°44' W 003°22'0 0.0
2018-Jan-18 07:29N 47°44' W 003°22'0 0.0
2018-Jan-18 07:00N 47°44' W 003°22'0 0.0
2018-Jan-18 06:30N 47°44' W 003°22'0 0.0
2018-Jan-18 06:00N 47°44' W 003°22'0 0.0
2018-Jan-18 05:30N 47°44' W 003°22'0 0.0
2018-Jan-18 05:00N 47°44' W 003°22'0 0.0
2018-Jan-18 04:30N 47°44' W 003°22'0 0.0
2018-Jan-18 04:00N 47°44' W 003°22'0 0.0
2018-Jan-18 03:30N 47°44' W 003°22'0 0.0
2018-Jan-18 03:00N 47°44' W 003°22'0 0.0
2018-Jan-18 02:30N 47°44' W 003°22'0 0.0
2018-Jan-18 02:00N 47°44' W 003°22'0 0.0
2018-Jan-18 01:30N 47°44' W 003°22'0 0.0
2018-Jan-18 01:00N 47°44' W 003°22'0 0.0
2018-Jan-18 00:00N 47°44' W 003°22'0 0.0
2018-Jan-17 23:57N 47°44' W 003°22'  
2018-Jan-12 15:01N 47°44' W 003°22'0 0.0
2018-Jan-12 14:31N 47°44' W 003°22'0 0.0
2018-Jan-12 14:00N 47°44' W 003°22'0 0.0
2018-Jan-12 13:31N 47°44' W 003°22'0 0.0
2018-Jan-12 13:00N 47°44' W 003°22'0 0.0
2018-Jan-12 12:30N 47°44' W 003°22'0 0.0
2018-Jan-12 12:00N 47°44' W 003°22'0 0.0
2018-Jan-12 11:30N 47°44' W 003°22'0 0.0
2018-Jan-12 11:01N 47°44' W 003°22'0 0.0
2018-Jan-12 10:30N 47°44' W 003°22'0 0.0
2018-Jan-12 10:00N 47°44' W 003°22'0 0.0
2018-Jan-12 09:31N 47°44' W 003°22'0 0.0
2018-Jan-12 09:00N 47°44' W 003°22'0 0.0
2018-Jan-12 08:30N 47°44' W 003°22'0 0.0
2018-Jan-12 08:00N 47°44' W 003°22'0 0.0
2018-Jan-12 07:30N 47°44' W 003°22'0 0.0
2018-Jan-12 07:00N 47°44' W 003°22'0 0.0
2018-Jan-12 06:31N 47°44' W 003°22'0 0.0
2018-Jan-12 06:00N 47°44' W 003°22'0 0.0
2018-Jan-12 05:30N 47°44' W 003°22'0 0.0
2018-Jan-12 05:01N 47°44' W 003°22'0 0.0
2018-Jan-12 04:30N 47°44' W 003°22'0 0.2
2018-Jan-12 04:01N 47°44' W 003°22'0 0.2
2018-Jan-12 03:31N 47°44' W 003°22'2 3.9
2018-Jan-12 03:00N 47°42' W 003°22'4 8.6
2018-Jan-12 02:30N 47°38' W 003°19'5 9.1
2018-Jan-12 02:00N 47°34' W 003°17'5 9.1
2018-Jan-12 01:30N 47°30' W 003°13'4 8.8
2018-Jan-12 01:00N 47°26' W 003°09'5 9.1
2018-Jan-12 00:30N 47°23' W 003°05'5 9.1
2018-Jan-12 00:01N 47°20' W 003°00'5 9.1
2018-Jan-11 23:28N 47°16' W 002°56'3 5.8
2018-Jan-11 23:00N 47°14' W 002°53'2 1.6
2018-Jan-11 21:28N 47°16' W 002°54'2 3.2
2018-Jan-11 20:51N 47°14' W 002°53'1 2.6
2018-Jan-11 20:30N 47°14' W 002°54'2 1.7
2018-Jan-11 19:02N 47°16' W 002°53'0 2.7
2018-Jan-11 18:55N 47°16' W 002°53'1 2.9
2018-Jan-11 18:30N 47°16' W 002°51'2 3.1
2018-Jan-11 17:59N 47°14' W 002°50'1 2.7
2018-Jan-11 17:30N 47°14' W 002°52'2 1.6
2018-Jan-11 16:03N 47°16' W 002°53'0 3.0
2018-Jan-11 15:59N 47°16' W 002°54'1 2.3
2018-Jan-11 15:30N 47°16' W 002°55'2 3.0
2018-Jan-11 14:48N 47°14' W 002°55'1 2.5
2018-Jan-11 14:22N 47°13' W 002°57'1 2.5
2018-Jan-11 13:49N 47°13' W 002°59'  
Track history (hours):
 
Tides and Currents Weather Stations Pressure Air Temp Water Temp Dewpoint Dewpoint Depression Visibility Wind Speed Wind Dir Waves Ship Positions

F/V Le Dolmen

Last reported at 2018-Jan-21 12:46 UTC. Time now 2018-Jan-23 06:26 UTC.
Position N 47°18' W 002°60'.

Length 18 m.

Type: Fishing. MMSI: 228374000.

Date/timePositionNaut miles runAvg speedWind from/ knotsBaromVisibWave heightAir tempDewpointWater temp
2018-Jan-21 12:46N 47°18' W 002°60'2 8.9
2018-Jan-21 12:30N 47°20' W 003°02'4 9.1
2018-Jan-21 12:01N 47°23' W 003°06'4 8.5
2018-Jan-21 11:31N 47°27' W 003°09'4 8.7
2018-Jan-21 11:00N 47°31' W 003°12'4 9.0
2018-Jan-21 10:30N 47°35' W 003°16'5 9.2
2018-Jan-21 10:00N 47°38' W 003°20'4 8.8
2018-Jan-21 09:30N 47°42' W 003°22'1 2.6
2018-Jan-21 09:00N 47°44' W 003°22'0 0.2
2018-Jan-21 08:30N 47°44' W 003°22'0 0.0
2018-Jan-21 08:00N 47°44' W 003°22'0 0.0
2018-Jan-21 07:30N 47°44' W 003°22'0 0.0
2018-Jan-21 07:00N 47°44' W 003°22'0 0.0
2018-Jan-21 06:30N 47°44' W 003°22'0 0.0
2018-Jan-21 06:00N 47°44' W 003°22'0 0.0
2018-Jan-21 05:30N 47°44' W 003°22'0 0.0
2018-Jan-21 05:00N 47°44' W 003°22'0 0.0
2018-Jan-21 04:30N 47°44' W 003°22'0 0.0
2018-Jan-21 04:00N 47°44' W 003°22'0 0.0
2018-Jan-21 03:30N 47°44' W 003°22'0 0.0
2018-Jan-21 03:00N 47°44' W 003°22'0 0.0
2018-Jan-21 02:30N 47°44' W 003°22'0 0.0
2018-Jan-21 02:00N 47°44' W 003°22'0 0.0
2018-Jan-21 01:29N 47°44' W 003°22'0 0.0
2018-Jan-21 01:00N 47°44' W 003°22'0 0.0
2018-Jan-21 00:30N 47°44' W 003°22'0 0.0
2018-Jan-21 00:00N 47°44' W 003°22'0 0.0
2018-Jan-20 23:30N 47°44' W 003°22'0 0.0
2018-Jan-20 23:00N 47°44' W 003°22'0 0.0
2018-Jan-20 22:30N 47°44' W 003°22'0 0.0
2018-Jan-20 22:00N 47°44' W 003°22'0 0.0
2018-Jan-20 21:30N 47°44' W 003°22'0 0.0
2018-Jan-20 21:00N 47°44' W 003°22'0 0.0
2018-Jan-20 20:30N 47°44' W 003°22'0 0.0
2018-Jan-20 20:00N 47°44' W 003°22'0 0.0
2018-Jan-20 19:30N 47°44' W 003°22'0 0.0
2018-Jan-20 19:00N 47°44' W 003°22'0 0.0
2018-Jan-20 18:30N 47°44' W 003°22'0 0.0
2018-Jan-20 18:00N 47°44' W 003°22'0 0.0
2018-Jan-20 17:30N 47°44' W 003°22'0 0.0
2018-Jan-20 17:00N 47°44' W 003°22'0 0.0
2018-Jan-20 16:30N 47°44' W 003°22'0 0.0
2018-Jan-20 16:00N 47°44' W 003°22'0 0.0
2018-Jan-20 15:30N 47°44' W 003°22'0 0.0
2018-Jan-20 15:00N 47°44' W 003°22'0 0.0
2018-Jan-20 14:30N 47°44' W 003°22'0 0.0
2018-Jan-20 14:00N 47°44' W 003°22'0 0.0
2018-Jan-20 13:30N 47°44' W 003°22'0 0.0
2018-Jan-20 13:00N 47°44' W 003°22'0 0.0
2018-Jan-20 12:30N 47°44' W 003°22'0 0.2
2018-Jan-20 12:00N 47°44' W 003°22'0 0.0
2018-Jan-20 11:30N 47°44' W 003°22'2 4.8
2018-Jan-20 11:00N 47°41' W 003°22'4 7.7
2018-Jan-20 10:30N 47°37' W 003°22'4 7.3
2018-Jan-20 10:01N 47°34' W 003°22'3 6.4
2018-Jan-20 09:30N 47°31' W 003°23'3 6.6
2018-Jan-20 09:00N 47°27' W 003°23'3 6.7
2018-Jan-20 08:30N 47°24' W 003°22'3 6.7
2018-Jan-20 08:00N 47°21' W 003°20'5 0.2
2018-Jan-19 03:04N 47°17' W 003°23'1 8.7
2018-Jan-19 02:58N 47°18' W 003°23'4 8.8
2018-Jan-19 02:30N 47°22' W 003°23'4 8.6
2018-Jan-19 02:00N 47°26' W 003°23'4 8.6
2018-Jan-19 01:29N 47°30' W 003°22'4 8.3
2018-Jan-19 01:00N 47°34' W 003°22'4 8.5
2018-Jan-19 00:30N 47°39' W 003°22'4 8.6
2018-Jan-19 00:00N 47°43' W 003°22'1 1.8
2018-Jan-18 23:30N 47°44' W 003°22'0 0.0
2018-Jan-18 23:00N 47°44' W 003°22'0 0.0
2018-Jan-18 22:30N 47°44' W 003°22'0 0.0
2018-Jan-18 22:00N 47°44' W 003°22'0 0.0
2018-Jan-18 21:31N 47°44' W 003°22'0 0.0
2018-Jan-18 21:00N 47°44' W 003°22'0 0.0
2018-Jan-18 20:30N 47°44' W 003°22'0 0.0
2018-Jan-18 20:00N 47°44' W 003°22'0 0.0
2018-Jan-18 19:30N 47°44' W 003°22'0 0.0
2018-Jan-18 19:00N 47°44' W 003°22'0 0.0
2018-Jan-18 18:30N 47°44' W 003°22'0 0.0
2018-Jan-18 18:00N 47°44' W 003°22'0 0.0
2018-Jan-18 17:30N 47°44' W 003°22'0 0.0
2018-Jan-18 16:59N 47°44' W 003°22'0 0.0
2018-Jan-18 16:30N 47°44' W 003°22'0 0.0
2018-Jan-18 16:00N 47°44' W 003°22'0 0.0
2018-Jan-18 15:30N 47°44' W 003°22'0 0.0
2018-Jan-18 15:00N 47°44' W 003°22'0 0.0
2018-Jan-18 14:30N 47°44' W 003°22'0 0.0
2018-Jan-18 14:00N 47°44' W 003°22'0 0.0
2018-Jan-18 13:30N 47°44' W 003°22'0 0.0
2018-Jan-18 13:00N 47°44' W 003°22'0 0.0
2018-Jan-18 12:30N 47°44' W 003°22'0 0.0
2018-Jan-18 12:00N 47°44' W 003°22'0 0.0
2018-Jan-18 11:30N 47°44' W 003°22'0 0.0
2018-Jan-18 11:00N 47°44' W 003°22'0 0.0
2018-Jan-18 10:30N 47°44' W 003°22'0 0.0
2018-Jan-18 10:00N 47°44' W 003°22'0 0.0
2018-Jan-18 09:30N 47°44' W 003°22'0 0.0
2018-Jan-18 09:00N 47°44' W 003°22'0 0.0
2018-Jan-18 08:30N 47°44' W 003°22'0 0.0
2018-Jan-18 08:00N 47°44' W 003°22'0 0.0
2018-Jan-18 07:29N 47°44' W 003°22'0 0.0
2018-Jan-18 07:00N 47°44' W 003°22'0 0.0
2018-Jan-18 06:30N 47°44' W 003°22'0 0.0
2018-Jan-18 06:00N 47°44' W 003°22'0 0.0
2018-Jan-18 05:30N 47°44' W 003°22'0 0.0
2018-Jan-18 05:00N 47°44' W 003°22'0 0.0
2018-Jan-18 04:30N 47°44' W 003°22'0 0.0
2018-Jan-18 04:00N 47°44' W 003°22'0 0.0
2018-Jan-18 03:30N 47°44' W 003°22'0 0.0
2018-Jan-18 03:00N 47°44' W 003°22'0 0.0
2018-Jan-18 02:30N 47°44' W 003°22'0 0.0
2018-Jan-18 02:00N 47°44' W 003°22'0 0.0
2018-Jan-18 01:30N 47°44' W 003°22'0 0.0
2018-Jan-18 01:00N 47°44' W 003°22'0 0.0
2018-Jan-18 00:00N 47°44' W 003°22'0 0.0
2018-Jan-17 23:57N 47°44' W 003°22'  
2018-Jan-12 15:01N 47°44' W 003°22'0 0.0
2018-Jan-12 14:31N 47°44' W 003°22'0 0.0
2018-Jan-12 14:00N 47°44' W 003°22'0 0.0
2018-Jan-12 13:31N 47°44' W 003°22'0 0.0
2018-Jan-12 13:00N 47°44' W 003°22'0 0.0
2018-Jan-12 12:30N 47°44' W 003°22'0 0.0
2018-Jan-12 12:00N 47°44' W 003°22'0 0.0
2018-Jan-12 11:30N 47°44' W 003°22'0 0.0
2018-Jan-12 11:01N 47°44' W 003°22'0 0.0
2018-Jan-12 10:30N 47°44' W 003°22'0 0.0
2018-Jan-12 10:00N 47°44' W 003°22'0 0.0
2018-Jan-12 09:31N 47°44' W 003°22'0 0.0
2018-Jan-12 09:00N 47°44' W 003°22'0 0.0
2018-Jan-12 08:30N 47°44' W 003°22'0 0.0
2018-Jan-12 08:00N 47°44' W 003°22'0 0.0
2018-Jan-12 07:30N 47°44' W 003°22'0 0.0
2018-Jan-12 07:00N 47°44' W 003°22'0 0.0
2018-Jan-12 06:31N 47°44' W 003°22'0 0.0
2018-Jan-12 06:00N 47°44' W 003°22'0 0.0
2018-Jan-12 05:30N 47°44' W 003°22'0 0.0
2018-Jan-12 05:01N 47°44' W 003°22'0 0.0
2018-Jan-12 04:30N 47°44' W 003°22'0 0.2
2018-Jan-12 04:01N 47°44' W 003°22'0 0.2
2018-Jan-12 03:31N 47°44' W 003°22'2 3.9
2018-Jan-12 03:00N 47°42' W 003°22'4 8.6
2018-Jan-12 02:30N 47°38' W 003°19'5 9.1
2018-Jan-12 02:00N 47°34' W 003°17'5 9.1
2018-Jan-12 01:30N 47°30' W 003°13'4 8.8
2018-Jan-12 01:00N 47°26' W 003°09'5 9.1
2018-Jan-12 00:30N 47°23' W 003°05'5 9.1
2018-Jan-12 00:01N 47°20' W 003°00'5 9.1
2018-Jan-11 23:28N 47°16' W 002°56'3 5.8
2018-Jan-11 23:00N 47°14' W 002°53'2 1.6
2018-Jan-11 21:28N 47°16' W 002°54'2 3.2
2018-Jan-11 20:51N 47°14' W 002°53'1 2.6
2018-Jan-11 20:30N 47°14' W 002°54'2 1.7
2018-Jan-11 19:02N 47°16' W 002°53'0 2.7
2018-Jan-11 18:55N 47°16' W 002°53'1 2.9
2018-Jan-11 18:30N 47°16' W 002°51'2 3.1
2018-Jan-11 17:59N 47°14' W 002°50'1 2.7
2018-Jan-11 17:30N 47°14' W 002°52'2 1.6
2018-Jan-11 16:03N 47°16' W 002°53'0 3.0
2018-Jan-11 15:59N 47°16' W 002°54'1 2.3
2018-Jan-11 15:30N 47°16' W 002°55'2 3.0
2018-Jan-11 14:48N 47°14' W 002°55'1 2.5
2018-Jan-11 14:22N 47°13' W 002°57'1 2.5
2018-Jan-11 13:49N 47°13' W 002°59'  

Dump ship's entire track history